createdAt,value
2018-09-27T00:00:56.271Z,13.35
2018-09-27T00:03:24.450Z,13.34
2018-09-27T00:05:52.639Z,13.34
2018-09-27T00:08:20.794Z,13.31
2018-09-27T00:10:48.946Z,13.25
2018-09-27T00:13:17.102Z,13.23
2018-09-27T00:15:45.279Z,13.19
2018-09-27T00:18:13.444Z,13.19
2018-09-27T00:20:41.607Z,13.16
2018-09-27T00:23:09.760Z,13.11
2018-09-27T00:25:37.951Z,13.10
2018-09-27T00:28:06.114Z,13.11
2018-09-27T00:30:34.280Z,13.11
2018-09-27T00:33:02.439Z,13.11
2018-09-27T00:35:30.602Z,13.04
2018-09-27T00:37:58.862Z,13.01
2018-09-27T00:40:27.015Z,13.01
2018-09-27T00:42:55.178Z,12.98
2018-09-27T00:45:23.363Z,12.95
2018-09-27T00:47:51.527Z,12.96
2018-09-27T00:50:19.732Z,13.02
2018-09-27T00:52:47.890Z,13.03
2018-09-27T00:55:16.047Z,13.02
2018-09-27T00:57:44.203Z,13.03
2018-09-27T01:00:12.404Z,13.02
2018-09-27T01:02:40.587Z,13.04
2018-09-27T01:05:08.740Z,13.03
2018-09-27T01:07:36.909Z,13.02
2018-09-27T01:10:05.167Z,13.03
2018-09-27T01:12:33.330Z,13.03
2018-09-27T01:15:01.494Z,13.06
2018-09-27T01:17:29.647Z,13.05
2018-09-27T01:19:57.799Z,13.06
2018-09-27T01:22:25.958Z,13.06
2018-09-27T01:24:54.127Z,13.04
2018-09-27T01:27:22.287Z,13.03
2018-09-27T01:29:50.461Z,13.03
2018-09-27T01:32:18.615Z,13.01
2018-09-27T01:34:46.781Z,12.99
2018-09-27T01:37:15.043Z,12.96
2018-09-27T01:39:43.199Z,12.94
2018-09-27T01:42:11.352Z,12.91
2018-09-27T01:44:39.498Z,12.86
2018-09-27T01:47:07.714Z,12.83
2018-09-27T01:49:35.858Z,12.82
2018-09-27T01:52:04.047Z,12.81
2018-09-27T01:54:32.211Z,12.81
2018-09-27T01:57:00.358Z,12.77
2018-09-27T01:59:28.541Z,12.77
2018-09-27T02:01:56.711Z,12.78
2018-09-27T02:04:24.867Z,12.79
2018-09-27T02:06:53.031Z,12.78
2018-09-27T02:09:21.198Z,12.78
2018-09-27T02:11:49.352Z,12.77
2018-09-27T02:14:17.516Z,12.74
2018-09-27T02:16:45.687Z,12.71
2018-09-27T02:19:13.844Z,12.67
2018-09-27T02:21:42.014Z,12.64
2018-09-27T02:24:10.195Z,12.62
2018-09-27T02:26:38.371Z,12.62
2018-09-27T02:29:06.518Z,12.61
2018-09-27T02:31:34.683Z,12.60
2018-09-27T02:34:02.843Z,12.61
2018-09-27T02:36:31.020Z,12.61
2018-09-27T02:38:59.190Z,12.59
2018-09-27T02:41:27.399Z,12.58
2018-09-27T02:43:55.546Z,12.58
2018-09-27T02:46:23.709Z,12.55
2018-09-27T02:48:51.870Z,12.55
2018-09-27T02:51:20.011Z,12.51
2018-09-27T02:53:48.171Z,12.47
2018-09-27T02:56:16.335Z,12.41
2018-09-27T02:58:44.494Z,12.43
2018-09-27T03:01:12.642Z,12.43
2018-09-27T03:03:40.826Z,12.42
2018-09-27T03:06:09.033Z,12.39
2018-09-27T03:08:37.203Z,12.39
2018-09-27T03:11:05.370Z,12.39
2018-09-27T03:13:33.571Z,12.36
2018-09-27T03:16:01.735Z,12.35
2018-09-27T03:18:29.907Z,12.33
2018-09-27T03:20:58.155Z,12.27
2018-09-27T03:23:26.238Z,12.22
2018-09-27T03:25:54.489Z,12.20
2018-09-27T03:28:22.651Z,12.20
2018-09-27T03:30:51.151Z,12.23
2018-09-27T03:33:19.340Z,12.23
2018-09-27T03:35:47.499Z,12.21
2018-09-27T03:38:15.655Z,12.16
2018-09-27T03:40:43.888Z,12.13
2018-09-27T03:43:12.007Z,12.10
2018-09-27T03:45:40.162Z,12.04
2018-09-27T03:48:08.328Z,11.98
2018-09-27T03:50:36.491Z,12.00
2018-09-27T03:53:04.656Z,12.06
2018-09-27T03:55:32.881Z,12.08
2018-09-27T03:58:01.118Z,12.10
2018-09-27T04:00:29.319Z,12.10
2018-09-27T04:02:57.487Z,12.09
2018-09-27T04:05:25.647Z,12.07
2018-09-27T04:07:53.800Z,12.06
2018-09-27T04:10:21.959Z,12.02
2018-09-27T04:12:50.140Z,11.96
2018-09-27T04:15:18.298Z,11.95
2018-09-27T04:17:46.519Z,11.93
2018-09-27T04:20:14.695Z,11.92
2018-09-27T04:22:42.863Z,11.91
2018-09-27T04:25:11.078Z,11.91
2018-09-27T04:27:39.237Z,11.94
2018-09-27T04:30:07.671Z,11.94
2018-09-27T04:32:38.872Z,11.95
2018-09-27T04:35:07.051Z,11.91
2018-09-27T04:37:35.283Z,11.89
2018-09-27T04:40:03.452Z,11.86
2018-09-27T04:42:31.659Z,11.83
2018-09-27T04:44:59.824Z,11.78
2018-09-27T04:47:27.990Z,11.79
2018-09-27T04:49:56.151Z,11.85
2018-09-27T04:52:24.342Z,11.90
2018-09-27T04:54:52.527Z,11.90
2018-09-27T04:57:20.699Z,11.85
2018-09-27T04:59:48.875Z,11.79
2018-09-27T05:02:17.076Z,11.76
2018-09-27T05:04:45.262Z,11.72
2018-09-27T05:07:13.420Z,11.69
2018-09-27T05:09:41.601Z,11.65
2018-09-27T05:12:09.754Z,11.61
2018-09-27T05:14:37.927Z,11.56
2018-09-27T05:17:06.086Z,11.55
2018-09-27T05:19:34.247Z,11.58
2018-09-27T05:22:02.413Z,11.63
2018-09-27T05:24:30.586Z,11.70
2018-09-27T05:26:58.758Z,11.72
2018-09-27T05:29:26.966Z,11.73
2018-09-27T05:31:55.136Z,11.78
2018-09-27T05:34:23.331Z,11.80
2018-09-27T05:36:51.511Z,11.84
2018-09-27T05:39:19.688Z,11.87
2018-09-27T05:41:47.878Z,11.87
2018-09-27T05:44:16.032Z,11.88
2018-09-27T05:46:44.216Z,11.89
2018-09-27T05:49:12.397Z,11.88
2018-09-27T05:51:40.621Z,11.87
2018-09-27T05:54:08.747Z,11.89
2018-09-27T05:56:36.955Z,11.91
2018-09-27T05:59:05.135Z,11.93
2018-09-27T06:01:33.295Z,11.92
2018-09-27T06:04:01.455Z,11.93
2018-09-27T06:06:29.620Z,11.92
2018-09-27T06:08:57.794Z,11.88
2018-09-27T06:11:26.011Z,11.86
2018-09-27T06:13:54.159Z,11.83
2018-09-27T06:16:22.350Z,11.82
2018-09-27T06:18:50.887Z,11.83
2018-09-27T06:21:19.051Z,11.83
2018-09-27T06:23:47.242Z,11.82
2018-09-27T06:26:15.406Z,11.81
2018-09-27T06:28:43.582Z,11.83
2018-09-27T06:31:11.764Z,11.85
2018-09-27T06:33:39.995Z,11.88
2018-09-27T06:36:08.099Z,11.91
2018-09-27T06:38:36.331Z,11.95
2018-09-27T06:41:04.473Z,12.00
2018-09-27T06:43:32.620Z,12.03
2018-09-27T06:46:00.783Z,12.08
2018-09-27T06:48:29.003Z,12.09
2018-09-27T06:50:57.170Z,12.10
2018-09-27T06:53:25.366Z,12.11
2018-09-27T06:55:53.581Z,12.11
2018-09-27T06:58:21.976Z,12.11
2018-09-27T07:00:50.281Z,12.12
2018-09-27T07:03:18.989Z,12.13
2018-09-27T07:05:47.246Z,12.14
2018-09-27T07:08:15.473Z,12.16
2018-09-27T07:10:43.731Z,12.19
2018-09-27T07:13:12.089Z,12.21
2018-09-27T07:15:40.480Z,12.24
2018-09-27T07:18:08.675Z,12.27
2018-09-27T07:20:36.910Z,12.31
2018-09-27T07:23:05.130Z,12.36
2018-09-27T07:25:33.386Z,12.40
2018-09-27T07:28:01.662Z,12.47
2018-09-27T07:30:29.906Z,12.52
2018-09-27T07:32:58.151Z,12.58
2018-09-27T07:35:26.728Z,12.60
2018-09-27T07:37:55.008Z,12.66
2018-09-27T07:40:23.281Z,12.72
2018-09-27T07:42:51.541Z,12.77
2018-09-27T07:45:19.805Z,12.82
2018-09-27T07:47:48.081Z,12.87
2018-09-27T07:50:16.308Z,12.90
2018-09-27T07:52:44.571Z,12.94
2018-09-27T07:55:12.837Z,13.01
2018-09-27T07:57:41.093Z,13.07
2018-09-27T08:00:09.513Z,13.11
2018-09-27T08:02:37.859Z,13.15
2018-09-27T08:05:06.017Z,13.19
2018-09-27T08:07:34.287Z,13.24
2018-09-27T08:10:02.536Z,13.31
2018-09-27T08:12:30.778Z,13.36
2018-09-27T08:14:59.014Z,13.43
2018-09-27T08:17:27.332Z,13.49
2018-09-27T08:19:55.632Z,13.54
2018-09-27T08:22:23.928Z,13.60
2018-09-27T08:24:52.286Z,13.63
2018-09-27T08:27:20.566Z,13.66
2018-09-27T08:29:48.921Z,13.70
2018-09-27T08:32:17.261Z,13.75
2018-09-27T08:34:45.505Z,13.80
2018-09-27T08:37:13.771Z,13.85
2018-09-27T08:39:42.048Z,13.89
2018-09-27T08:42:10.407Z,13.94
2018-09-27T08:44:38.803Z,13.98
2018-09-27T08:47:06.989Z,14.02
2018-09-27T08:49:35.238Z,14.05
2018-09-27T08:52:03.514Z,14.09
2018-09-27T08:54:31.808Z,14.13
2018-09-27T08:57:00.082Z,14.18
2018-09-27T08:59:28.340Z,14.20
2018-09-27T09:01:56.595Z,14.27
2018-09-27T09:04:24.856Z,14.30
2018-09-27T09:06:53.101Z,14.34
2018-09-27T09:09:21.339Z,14.38
2018-09-27T09:11:49.588Z,14.42
2018-09-27T09:14:17.863Z,14.45
2018-09-27T09:16:46.093Z,14.49
2018-09-27T09:19:14.565Z,14.54
2018-09-27T09:21:42.899Z,14.61
2018-09-27T09:24:11.121Z,14.68
2018-09-27T09:26:39.406Z,14.75
2018-09-27T09:29:07.800Z,14.82
2018-09-27T09:31:36.118Z,14.89
2018-09-27T09:34:04.387Z,14.99
2018-09-27T09:36:32.661Z,15.07
2018-09-27T09:39:01.050Z,15.18
2018-09-27T09:41:29.322Z,15.28
2018-09-27T09:43:57.592Z,15.40
2018-09-27T09:46:26.066Z,15.53
2018-09-27T09:48:54.336Z,15.68
2018-09-27T09:51:22.586Z,15.81
2018-09-27T09:53:50.834Z,15.99
2018-09-27T09:56:19.091Z,16.19
2018-09-27T09:58:47.374Z,16.40
2018-09-27T10:01:15.641Z,16.62
2018-09-27T10:03:43.938Z,16.81
2018-09-27T10:06:12.218Z,17.01
2018-09-27T10:08:40.504Z,17.18
2018-09-27T10:11:08.797Z,17.35
2018-09-27T10:13:37.117Z,17.50
2018-09-27T10:16:05.394Z,17.65
2018-09-27T10:18:33.652Z,17.81
2018-09-27T10:21:01.938Z,17.97
2018-09-27T10:23:30.238Z,18.13
2018-09-27T10:25:58.577Z,18.30
2018-09-27T10:28:26.821Z,18.44
2018-09-27T10:30:55.127Z,18.57
2018-09-27T10:33:23.517Z,18.68
2018-09-27T10:35:52.036Z,18.81
2018-09-27T10:38:20.299Z,18.90
2018-09-27T10:40:48.655Z,19.02
2018-09-27T10:43:16.961Z,19.12
2018-09-27T10:45:45.205Z,19.22
2018-09-27T10:48:13.479Z,19.37
2018-09-27T10:50:41.733Z,19.48
2018-09-27T10:53:10.105Z,19.54
2018-09-27T10:55:38.402Z,19.66
2018-09-27T10:58:07.418Z,19.80
2018-09-27T11:00:35.667Z,19.90
2018-09-27T11:03:03.913Z,19.98
2018-09-27T11:05:32.216Z,20.12
2018-09-27T11:08:00.498Z,20.25
2018-09-27T11:10:34.475Z,20.38
2018-09-27T11:13:02.818Z,20.46
2018-09-27T11:15:31.109Z,20.57
2018-09-27T11:17:59.449Z,20.66
2018-09-27T11:20:27.708Z,20.75
2018-09-27T11:22:55.990Z,20.84
2018-09-27T11:25:24.264Z,20.91
2018-09-27T11:27:52.513Z,21.04
2018-09-27T11:30:26.131Z,21.13
2018-09-27T11:32:54.556Z,21.20
2018-09-27T11:35:22.823Z,21.23
2018-09-27T11:37:51.101Z,21.31
2018-09-27T11:40:19.563Z,21.42
2018-09-27T11:42:47.890Z,21.52
2018-09-27T11:45:16.239Z,21.63
2018-09-27T11:47:44.530Z,21.69
2018-09-27T11:50:12.882Z,21.84
2018-09-27T11:52:41.590Z,21.90
2018-09-27T11:55:10.265Z,22.00
2018-09-27T11:57:38.563Z,22.03
2018-09-27T12:00:07.732Z,22.20
2018-09-27T12:02:35.971Z,22.31
2018-09-27T12:05:04.422Z,22.45
2018-09-27T12:07:33.479Z,22.51
2018-09-27T12:10:02.209Z,22.63
2018-09-27T12:12:30.584Z,22.84
2018-09-27T12:14:58.853Z,23.00
2018-09-27T12:17:27.149Z,23.13
2018-09-27T12:19:55.438Z,23.15
2018-09-27T12:22:23.628Z,23.22
2018-09-27T12:24:51.889Z,23.43
2018-09-27T12:27:20.237Z,23.59
2018-09-27T12:29:48.476Z,23.78
2018-09-27T12:32:16.729Z,24.06
2018-09-27T12:34:44.991Z,24.37
2018-09-27T12:37:13.253Z,24.63
2018-09-27T12:39:41.598Z,24.92
2018-09-27T12:42:09.964Z,25.15
2018-09-27T12:44:38.013Z,25.39
2018-09-27T12:47:06.256Z,25.60
2018-09-27T12:49:34.512Z,25.87
2018-09-27T12:52:02.988Z,26.14
2018-09-27T12:54:31.102Z,26.47
2018-09-27T12:56:59.473Z,26.84
2018-09-27T12:59:27.725Z,27.07
2018-09-27T13:01:56.119Z,27.05
2018-09-27T13:04:24.277Z,27.02
2018-09-27T13:06:52.549Z,27.27
2018-09-27T13:09:20.974Z,27.36
2018-09-27T13:11:49.184Z,27.13
2018-09-27T13:14:17.523Z,26.59
2018-09-27T13:16:45.790Z,25.92
2018-09-27T13:19:14.045Z,25.56
2018-09-27T13:21:42.326Z,25.34
2018-09-27T13:24:10.568Z,25.36
2018-09-27T13:26:38.864Z,25.49
2018-09-27T13:29:07.041Z,25.31
2018-09-27T13:31:35.365Z,24.93
2018-09-27T13:34:03.630Z,24.51
2018-09-27T13:36:31.905Z,23.98
2018-09-27T13:39:00.192Z,23.66
2018-09-27T13:41:28.480Z,23.60
2018-09-27T13:43:56.789Z,23.41
2018-09-27T13:46:25.102Z,23.39
2018-09-27T13:48:53.358Z,23.44
2018-09-27T13:51:21.606Z,23.63
2018-09-27T13:53:49.935Z,23.61
2018-09-27T13:56:18.267Z,23.50
2018-09-27T13:58:46.622Z,23.40
2018-09-27T14:01:14.981Z,23.62
2018-09-27T14:03:43.225Z,23.80
2018-09-27T14:06:11.531Z,23.67
2018-09-27T14:08:39.763Z,23.50
2018-09-27T14:11:08.013Z,23.30
2018-09-27T14:13:36.262Z,23.11
2018-09-27T14:16:04.516Z,22.95
2018-09-27T14:18:32.762Z,22.81
2018-09-27T14:21:01.155Z,22.75
2018-09-27T14:23:29.372Z,22.71
2018-09-27T14:25:57.604Z,22.69
2018-09-27T14:28:25.846Z,22.65
2018-09-27T14:30:54.117Z,22.62
2018-09-27T14:33:22.367Z,22.61
2018-09-27T14:35:50.671Z,22.58
2018-09-27T14:38:18.850Z,22.54
2018-09-27T14:40:47.097Z,22.54
2018-09-27T14:43:15.348Z,22.52
2018-09-27T14:45:43.612Z,22.44
2018-09-27T14:48:11.815Z,22.31
2018-09-27T14:50:40.028Z,22.21
2018-09-27T14:53:08.306Z,22.07
2018-09-27T14:55:36.532Z,22.09
2018-09-27T14:58:05.013Z,22.02
2018-09-27T15:00:33.343Z,21.95
2018-09-27T15:03:01.679Z,21.91
2018-09-27T15:05:29.877Z,21.88
2018-09-27T15:07:58.102Z,21.89
2018-09-27T15:10:26.487Z,21.87
2018-09-27T15:12:54.634Z,21.83
2018-09-27T15:15:22.880Z,21.76
2018-09-27T15:17:51.111Z,21.73
2018-09-27T15:20:19.432Z,21.71
2018-09-27T15:22:47.880Z,21.65
2018-09-27T15:25:16.208Z,21.60
2018-09-27T15:27:44.414Z,21.60
2018-09-27T15:30:13.921Z,21.56
2018-09-27T15:32:42.233Z,21.57
2018-09-27T15:35:11.661Z,21.54
2018-09-27T15:37:43.510Z,21.53
2018-09-27T15:40:11.740Z,21.51
2018-09-27T15:42:40.079Z,21.48
2018-09-27T15:45:08.322Z,21.45
2018-09-27T15:47:36.580Z,21.41
2018-09-27T15:50:04.951Z,21.37
2018-09-27T15:52:33.209Z,21.35
2018-09-27T15:55:01.543Z,21.33
2018-09-27T15:57:29.747Z,21.34
2018-09-27T15:59:58.130Z,21.36
2018-09-27T16:02:26.401Z,21.32
2018-09-27T16:04:54.625Z,21.30
2018-09-27T16:07:22.932Z,21.23
2018-09-27T16:09:51.179Z,21.16
2018-09-27T16:12:19.466Z,21.09
2018-09-27T16:14:47.788Z,21.02
2018-09-27T16:17:15.951Z,20.95
2018-09-27T16:19:44.126Z,20.88
2018-09-27T16:22:12.361Z,20.79
2018-09-27T16:24:40.643Z,20.74
2018-09-27T16:27:09.051Z,20.69
2018-09-27T16:29:37.271Z,20.66
2018-09-27T16:32:05.596Z,20.64
2018-09-27T16:34:33.788Z,20.59
2018-09-27T16:37:02.044Z,20.56
2018-09-27T16:39:30.672Z,20.50
2018-09-27T16:41:58.954Z,20.42
2018-09-27T16:44:27.151Z,20.34
2018-09-27T16:46:55.338Z,20.25
2018-09-27T16:49:23.630Z,20.17
2018-09-27T16:51:51.871Z,20.09
2018-09-27T16:54:20.075Z,20.00
2018-09-27T16:56:48.302Z,19.90
2018-09-27T16:59:16.520Z,19.82
2018-09-27T17:01:44.898Z,19.74
2018-09-27T17:04:13.115Z,19.64
2018-09-27T17:06:41.300Z,19.56
2018-09-27T17:09:10.103Z,19.47
2018-09-27T17:11:38.460Z,19.39
2018-09-27T17:14:06.843Z,19.30
2018-09-27T17:16:35.268Z,19.22
2018-09-27T17:19:04.218Z,19.14
2018-09-27T17:21:32.583Z,19.04
2018-09-27T17:24:00.765Z,18.94
2018-09-27T17:26:28.971Z,18.86
2018-09-27T17:28:57.219Z,18.76
2018-09-27T17:31:25.534Z,18.68
2018-09-27T17:33:53.775Z,18.59
2018-09-27T17:36:22.018Z,18.52
2018-09-27T17:38:50.351Z,18.46
2018-09-27T17:41:18.614Z,18.38
2018-09-27T17:43:46.897Z,18.30
2018-09-27T17:46:15.121Z,18.26
2018-09-27T17:48:43.499Z,18.20
2018-09-27T17:51:11.698Z,18.13
2018-09-27T17:53:40.111Z,18.06
2018-09-27T17:56:08.308Z,18.00
2018-09-27T17:58:39.541Z,17.93
2018-09-27T18:01:07.764Z,17.86
2018-09-27T18:03:36.119Z,17.81
2018-09-27T18:06:04.614Z,17.74
2018-09-27T18:08:33.023Z,17.70
2018-09-27T18:11:02.462Z,17.65
2018-09-27T18:13:30.796Z,17.59
2018-09-27T18:15:59.075Z,17.56
2018-09-27T18:18:27.413Z,17.51
2018-09-27T18:20:55.811Z,17.46
2018-09-27T18:23:24.048Z,17.45
2018-09-27T18:25:52.345Z,17.41
2018-09-27T18:28:20.640Z,17.36
2018-09-27T18:30:49.330Z,17.31
2018-09-27T18:33:18.085Z,17.27
2018-09-27T18:35:46.366Z,17.25
2018-09-27T18:38:14.759Z,17.22
2018-09-27T18:40:42.960Z,17.18
2018-09-27T18:43:11.608Z,17.14
2018-09-27T18:45:39.701Z,17.11
2018-09-27T18:48:08.021Z,17.08
2018-09-27T18:50:36.394Z,17.07
2018-09-27T18:53:04.623Z,17.06
2018-09-27T18:55:32.915Z,17.04
2018-09-27T18:58:01.160Z,17.00
2018-09-27T19:00:29.702Z,16.96
2018-09-27T19:02:57.890Z,16.94
2018-09-27T19:05:30.135Z,16.88
2018-09-27T19:07:58.385Z,16.85
2018-09-27T19:10:26.618Z,16.81
2018-09-27T19:12:54.971Z,16.82
2018-09-27T19:15:23.942Z,16.81
2018-09-27T19:17:52.476Z,16.79
2018-09-27T19:20:21.968Z,16.76
2018-09-27T19:22:50.344Z,16.76
2018-09-27T19:25:18.510Z,16.78
2018-09-27T19:27:46.712Z,16.79
2018-09-27T19:30:15.360Z,16.82
2018-09-27T19:32:49.342Z,16.83
2018-09-27T19:35:17.668Z,16.80
2018-09-27T19:37:46.110Z,16.78
2018-09-27T19:40:14.415Z,16.73
2018-09-27T19:42:42.766Z,16.72
2018-09-27T19:45:11.100Z,16.72
2018-09-27T19:47:39.406Z,16.73
2018-09-27T19:50:07.725Z,16.67
2018-09-27T19:52:36.318Z,16.61
2018-09-27T19:55:04.613Z,16.51
2018-09-27T19:57:32.850Z,16.45
2018-09-27T20:00:01.190Z,16.39
2018-09-27T20:02:29.736Z,16.31
2018-09-27T20:04:58.133Z,16.31
2018-09-27T20:07:26.323Z,16.31
2018-09-27T20:09:55.086Z,16.29
2018-09-27T20:12:25.004Z,16.24
2018-09-27T20:14:53.466Z,16.18
2018-09-27T20:17:21.769Z,16.16
2018-09-27T20:19:49.933Z,16.12
2018-09-27T20:22:18.233Z,16.08
2018-09-27T20:24:46.459Z,16.06
2018-09-27T20:27:14.674Z,16.06
2018-09-27T20:29:43.108Z,16.03
2018-09-27T20:32:11.787Z,16.00
2018-09-27T20:34:40.472Z,16.03
2018-09-27T20:37:08.628Z,16.08
2018-09-27T20:39:36.927Z,16.07
2018-09-27T20:42:05.137Z,16.06
2018-09-27T20:44:33.434Z,16.04
2018-09-27T20:47:01.847Z,16.04
2018-09-27T20:49:30.237Z,16.01
2018-09-27T20:51:58.894Z,15.98
2018-09-27T20:54:27.150Z,15.94
2018-09-27T20:56:55.387Z,15.90
2018-09-27T20:59:23.636Z,15.90
2018-09-27T21:01:51.842Z,15.90
2018-09-27T21:04:20.016Z,15.85
2018-09-27T21:06:48.204Z,15.81
2018-09-27T21:09:16.394Z,15.75
2018-09-27T21:11:44.612Z,15.72
2018-09-27T21:14:14.517Z,15.66
2018-09-27T21:16:42.679Z,15.64
2018-09-27T21:19:11.001Z,15.63
2018-09-27T21:21:39.260Z,15.61
2018-09-27T21:24:07.511Z,15.62
2018-09-27T21:26:35.775Z,15.63
2018-09-27T21:29:04.003Z,15.60
2018-09-27T21:31:32.186Z,15.57
2018-09-27T21:34:00.387Z,15.55
2018-09-27T21:36:28.589Z,15.52
2018-09-27T21:38:56.844Z,15.46
2018-09-27T21:41:25.076Z,15.43
2018-09-27T21:43:53.248Z,15.46
2018-09-27T21:46:21.438Z,15.49
2018-09-27T21:48:49.625Z,15.48
2018-09-27T21:51:17.880Z,15.42
2018-09-27T21:53:46.031Z,15.35
2018-09-27T21:56:14.184Z,15.36
2018-09-27T21:58:42.600Z,15.37
2018-09-27T22:01:10.832Z,15.39
2018-09-27T22:03:39.079Z,15.35
2018-09-27T22:06:07.245Z,15.34
2018-09-27T22:08:35.404Z,15.34
2018-09-27T22:11:03.669Z,15.32
2018-09-27T22:13:31.926Z,15.27
2018-09-27T22:16:00.179Z,15.20
2018-09-27T22:18:28.579Z,15.14
2018-09-27T22:20:56.783Z,15.09
2018-09-27T22:23:25.007Z,15.05
2018-09-27T22:25:53.250Z,15.05
2018-09-27T22:28:21.497Z,15.07
2018-09-27T22:30:49.704Z,15.09
2018-09-27T22:33:17.983Z,15.12
2018-09-27T22:35:46.204Z,15.10
2018-09-27T22:38:14.453Z,15.04
2018-09-27T22:40:42.664Z,14.98
2018-09-27T22:43:10.915Z,14.92
2018-09-27T22:45:39.099Z,14.88
2018-09-27T22:48:07.343Z,14.82
2018-09-27T22:50:35.566Z,14.76
2018-09-27T22:53:03.746Z,14.76
2018-09-27T22:55:31.899Z,14.78
2018-09-27T22:58:00.092Z,14.81
2018-09-27T23:00:28.299Z,14.81
2018-09-27T23:02:56.566Z,14.81
2018-09-27T23:05:24.874Z,14.82
2018-09-27T23:07:53.002Z,14.81
2018-09-27T23:10:21.176Z,14.77
2018-09-27T23:12:49.533Z,14.72
2018-09-27T23:15:17.865Z,14.66
2018-09-27T23:17:46.108Z,14.66
2018-09-27T23:20:14.438Z,14.63
2018-09-27T23:22:42.608Z,14.61
2018-09-27T23:25:10.786Z,14.60
2018-09-27T23:27:39.055Z,14.62
2018-09-27T23:30:07.430Z,14.63
2018-09-27T23:32:36.194Z,14.62
2018-09-27T23:35:04.742Z,14.63
2018-09-27T23:37:32.939Z,14.65
2018-09-27T23:40:01.130Z,14.65
2018-09-27T23:42:29.388Z,14.67
2018-09-27T23:44:57.555Z,14.64
2018-09-27T23:47:25.808Z,14.57
2018-09-27T23:49:54.050Z,14.49
2018-09-27T23:52:22.299Z,14.42
2018-09-27T23:54:50.570Z,14.39
2018-09-27T23:57:18.834Z,14.36
2018-09-27T23:59:47.055Z,14.38
